Taylorville, IL (62568)

3:01 PM CST on February 09, 2016 (GMT -0600)
RURAL KINCAID IL USA | | Change Station
CLOSE
Current Station
Personal Weather Station
Location: PAWNEE, IL
Elevation: 610 ft
Nearby Weather Stations
Active Advisory: Special Statement

Elev 610 ft 39.57 °N, 89.43 °W | Updated 2 minutes ago

Overcast
Overcast
19.8 °F
Feels Like 5 °F
N
17.0
Wind Variable Wind from NW
Gusts 17.0 mph

Today
High -- | Low -- °F
--% Chance of Precip.
Yesterday
High -- | Low -- °F
Precip. -- in
Pressure 29.98 in
Visibility 10.0 miles
Clouds Overcast 3100 ft
Windchill 5 °F
Dew Point -7 °F
Humidity 29%
Rainfall 0.00 in
Snow Depth Not available.
6:57 AM 5:26 PM
New Moon, 2% visible
METAR KTAZ 092035Z AUTO 30016G21KT 10SM OVC031 M07/M12 A2998 RMK AO2
Pressure 29.98 in
Visibility 10.0 miles
Clouds Overcast 3100 ft
Windchill 5 °F
Dew Point -7 °F
Humidity 29%
Rainfall 0.00 in
Snow Depth Not available.
6:57 AM 5:26 PM
New Moon, 2% visible
METAR KTAZ 092035Z AUTO 30016G21KT 10SM OVC031 M07/M12 A2998 RMK AO2

10-Day Weather Forecast

Almanac

Astronomy

Feb. 09, 2016 Rise Set
Actual Time
Civil Twilight
Nautical Twilight
Astronomical Twilight
Moon
Length of Visible Light
Length of Day
Tomorrow will be .
, % of the Moon is Illuminated

Today's Extremes

State Highs State Lows

Community

WunderPhotos

Upload Photos

1,891,699 photos uploaded!

WunderBlog® & News

Nearby

Air Quality

  Air Quality AQ Index Pollutant
Not available.

Snow Depth

Station Depth Elevation

Earthquake Activity

City Distance Mag. Time & Date
Minimum magnitude displayed is 2.5.

Coastal Water Temperatures

Place Temperature

Stations

Nearby Weather Stations

Station Location Temp. Windchill Dew Point Humidity Wind Precip. Elev Updated Type
                   

Watches & Warnings

Special Statement
Issued: 6:52 AM CST Feb. 9, 2016 – National Weather Service

Scattered snow showers will continue across central and southeast
Illinois into this afternoon. While accumulations will remain
minor... there will be slick spots on many area roadways.
Motorists are advised to drive with caution. Slow down and plan on
extra time to arrive at your destination today.


Onton


652 am CST Tue Feb 9 2016

Scattered snow showers will continue across central and southeast
Illinois into this afternoon. While accumulations will remain
minor... there will be slick spots on many area roadways.
Motorists are advised to drive with caution. Slow down and plan on
extra time to arrive at your destination today.


Onton

652 am CST Tue Feb 9 2016

Scattered snow showers will continue across central and southeast
Illinois into this afternoon. While accumulations will remain
minor... there will be slick spots on many area roadways.
Motorists are advised to drive with caution. Slow down and plan on
extra time to arrive at your destination today.


Onton